This is the latest recevied weather packets stored in our database for station/object IT9FBN-3. If no packets are shown the sender has not sent any weather packets the latest 10 day(s).
| Time | Temp. | Humidity | Pressure | Rain* | Wind** | Luminosity | Snow |
|---|---|---|---|---|---|---|---|
| 1777758304 | 11.67° C | 63% | 1023.3 hPa | 0 mm | - | - | - |
| 1777757703 | 11.11° C | 68% | 1023.3 hPa | 0 mm | - | - | - |
| 1777757104 | 10.56° C | 70% | 1023.3 hPa | 0 mm | - | - | - |
| 1777756804 | 11.11° C | 70% | 1023.1 hPa | 0 mm | - | - | - |
| 1777756503 | 11.11° C | 70% | 1023.2 hPa | 0 mm | - | - | - |
| 1777755904 | 11.11° C | 70% | 1022.9 hPa | 0 mm | - | - | - |
| 1777755604 | 11.11° C | 69% | 1022.9 hPa | 0 mm | - | - | - |
| 1777753504 | 11.67° C | 66% | 1022.7 hPa | 0 mm | - | - | - |
| 1777753204 | 11.67° C | 66% | 1022.7 hPa | 0 mm | - | - | - |
| 1777752304 | 11.67° C | 68% | 1022.7 hPa | 0 mm | - | - | - |
| 1777752004 | 11.67° C | 69% | 1022.7 hPa | 0 mm | - | - | - |
| 1777751704 | 11.67° C | 70% | 1022.6 hPa | 0 mm | - | - | - |
| 1777751404 | 11.67° C | 70% | 1022.6 hPa | 0 mm | - | - | - |
| 1777750503 | 11.67° C | 73% | 1022.5 hPa | 0 mm | - | - | - |
| 1777750204 | 11.67° C | 74% | 1022.3 hPa | 0 mm | - | - | - |
| 1777749904 | 11.67° C | 74% | 1022.5 hPa | 0 mm | - | - | - |
| 1777749604 | 12.22° C | 73% | 1022.5 hPa | 0 mm | - | - | - |
| 1777749004 | 12.22° C | 72% | 1022.4 hPa | 0 mm | - | - | - |
| 1777748704 | 12.22° C | 72% | 1022.2 hPa | 0 mm | - | - | - |
| 1777748104 | 12.22° C | 71% | 1022.1 hPa | 0 mm | - | - | - |
| 1777747804 | 12.22° C | 71% | 1022.2 hPa | 0 mm | - | - | - |
| 1777746904 | 12.78° C | 68% | 1022.2 hPa | 0 mm | - | - | - |
| 1777746304 | 12.78° C | 67% | 1022.1 hPa | 0 mm | - | - | - |
| 1777746004 | 12.78° C | 66% | 1021.9 hPa | 0 mm | - | - | - |
| 1777745404 | 13.33° C | 65% | 1021.9 hPa | 0 mm | - | - | - |
* Rain latest hour (hover to see other rain measurements)
** Current wind speed in m/s (hover to see current wind gust speed)